Delray Beach, FL

11:09 AM EST on February 13, 2016 (GMT -0500)
RAWS | | Change Station
CLOSE
Current Station
Personal Weather Station
Location: Delray Beach, FL
Elevation: 17 ft
Nearby Weather Stations

Elev 17 ft 26.50 °N, 80.22 °W | Updated 37 minutes ago

Scattered Clouds
Scattered Clouds
69.0 °F
Feels Like 69.0 °F
N
11.0
Wind Variable Wind from NW
Gusts 20.0 mph

Today
High -- | Low -- °F
--% Chance of Precip.
Yesterday
High -- | Low -- °F
Precip. -- in
Pressure 30.25 in
Visibility 10.0 miles
Clouds Scattered Clouds 2700 ft
Dew Point 58.0 °F
Humidity 69%
Rainfall in
Snow Depth Not available.
6:58 AM 6:11 PM
Waxing Crescent, 32% visible
METAR KPMP 131553Z 31013KT 10SM SCT027 22/15 A3025 RMK AO2 SLP244 T02170150
Pressure 30.25 in
Visibility 10.0 miles
Clouds Scattered Clouds 2700 ft
Dew Point 58.0 °F
Humidity 69%
Rainfall in
Snow Depth Not available.
6:58 AM 6:11 PM
Waxing Crescent, 32% visible
METAR KPMP 131553Z 31013KT 10SM SCT027 22/15 A3025 RMK AO2 SLP244 T02170150

10-Day Weather Forecast

Almanac

Astronomy

Feb. 13, 2016 Rise Set
Actual Time
Civil Twilight
Nautical Twilight
Astronomical Twilight
Moon
Length of Visible Light
Length of Day
Tomorrow will be .
, % of the Moon is Illuminated

Today's Extremes

State Highs State Lows

Community

WunderPhotos

Upload Photos

1,892,595 photos uploaded!

WunderBlog® & News

Nearby

Air Quality

  Air Quality AQ Index Pollutant
Not available.

Snow Depth

Station Depth Elevation

Earthquake Activity

City Distance Mag. Time & Date
Minimum magnitude displayed is 2.5.

Coastal Water Temperatures

Place Temperature

Stations

Nearby Weather Stations

Station Location Temp. Windchill Dew Point Humidity Wind Precip. Elev Updated Type
                   

Watches & Warnings

There are currently no watches in effect.